Time;durP1;ratioP1;P1;durP2;ratioP2;P2;SDS_P1;SDS_P2;PMS_P1;PMS_P2;Temp;Humidity;BMP_temperature;BMP_pressure;BME280_temperature;BME280_humidity;BME280_pressure;Samples;Min_cycle;Max_cycle;Signal;HPM_P1;HPM_P2
2023/09/03 00:02:16;;;;;;;0.10;0.10;;;;;;;18.02;82.40;98204.41;5062912;28;20049;-70
2023/09/03 00:04:45;;;;;;;0.20;0.20;;;;;;;17.97;82.80;98193.47;5065016;28;20059;-70
2023/09/03 00:07:13;;;;;;;0.10;0.10;;;;;;;17.97;82.58;98196.97;5064433;28;20045;-70
2023/09/03 00:09:41;;;;;;;0.10;0.10;;;;;;;17.93;82.68;98198.50;5062639;28;20033;-69
2023/09/03 00:12:09;;;;;;;0.15;0.15;;;;;;;17.82;83.56;98201.13;5062307;28;20045;-70
2023/09/03 00:14:37;;;;;;;0.22;0.22;;;;;;;17.96;82.52;98198.03;5061668;28;20127;-70
2023/09/03 00:17:04;;;;;;;0.10;0.10;;;;;;;17.97;82.44;98204.25;5060989;28;20048;-70
2023/09/03 00:19:32;;;;;;;0.63;0.20;;;;;;;17.90;82.45;98193.53;5061134;28;20048;-70
2023/09/03 00:22:01;;;;;;;0.13;0.13;;;;;;;17.93;82.23;98209.31;5061903;28;20128;-70
2023/09/03 00:24:32;;;;;;;0.10;0.10;;;;;;;17.87;82.63;98202.09;5062455;28;20454;-69
2023/09/03 00:27:00;;;;;;;0.20;0.20;;;;;;;17.99;82.16;98204.88;5061619;28;20049;-70
2023/09/03 00:29:28;;;;;;;0.03;0.03;;;;;;;17.95;81.90;98215.31;5061849;28;20037;-70
2023/09/03 00:31:56;;;;;;;0.20;0.20;;;;;;;17.94;82.23;98216.38;5058317;28;20135;-70
2023/09/03 00:34:23;;;;;;;0.10;0.10;;;;;;;17.93;82.11;98224.69;5060923;28;20091;-70
2023/09/03 00:36:51;;;;;;;0.20;0.20;;;;;;;17.85;82.80;98206.09;5062004;28;20488;-69
2023/09/03 00:39:20;;;;;;;0.17;0.17;;;;;;;17.89;82.38;98213.50;5058667;28;20047;-70
2023/09/03 00:41:48;;;;;;;0.22;0.22;;;;;;;17.84;82.37;98213.38;5059059;28;20054;-69
2023/09/03 00:44:15;;;;;;;0.13;0.13;;;;;;;17.89;82.05;98207.28;5062485;28;20111;-69
2023/09/03 00:46:43;;;;;;;0.13;0.13;;;;;;;17.83;82.14;98211.72;5060432;28;20040;-69
2023/09/03 00:49:12;;;;;;;0.13;0.13;;;;;;;17.86;81.88;98208.53;5057325;28;20037;-69
2023/09/03 00:51:40;;;;;;;0.10;0.10;;;;;;;17.84;81.37;98207.97;5060096;28;20044;-69
2023/09/03 00:54:08;;;;;;;0.10;0.10;;;;;;;17.80;81.52;98214.88;5060410;28;20504;-69
2023/09/03 00:56:38;;;;;;;0.13;0.13;;;;;;;17.79;81.42;98217.78;5060936;28;20094;-69
2023/09/03 00:59:06;;;;;;;0.03;0.03;;;;;;;17.80;81.38;98216.72;5061045;28;20123;-70
2023/09/03 01:01:35;;;;;;;0.13;0.13;;;;;;;17.81;81.30;98213.00;5061312;28;20055;-70
2023/09/03 01:04:04;;;;;;;0.20;0.20;;;;;;;17.78;81.05;98210.72;5059940;28;20505;-70
2023/09/03 01:06:31;;;;;;;0.10;0.10;;;;;;;17.80;80.98;98203.22;5061640;28;20062;-69
2023/09/03 01:08:59;;;;;;;0.10;0.10;;;;;;;17.80;81.03;98212.16;5059792;28;20045;-70
2023/09/03 01:11:33;;;;;;;0.05;0.05;;;;;;;17.72;81.25;98209.78;5062200;28;20043;-70
2023/09/03 01:14:12;;;;;;;0.13;0.13;;;;;;;17.69;81.51;98204.81;5058965;28;20052;-70
2023/09/03 01:16:45;;;;;;;0.03;0.03;;;;;;;17.75;81.00;98217.44;5058876;28;20131;-70
2023/09/03 01:19:29;;;;;;;0.10;0.10;;;;;;;17.70;81.38;98225.38;5059416;28;20079;-70
2023/09/03 01:22:06;;;;;;;0.10;0.10;;;;;;;17.61;81.45;98235.59;5060719;28;20156;-70
2023/09/03 01:24:43;;;;;;;0.13;0.13;;;;;;;17.65;81.38;98232.50;5060608;28;20044;-70
2023/09/03 01:27:18;;;;;;;0.20;0.20;;;;;;;17.68;81.13;98223.94;5059692;28;20044;-70
2023/09/03 01:29:47;;;;;;;0.17;0.17;;;;;;;17.69;81.24;98223.72;5059677;28;20095;-70
2023/09/03 01:32:16;;;;;;;0.10;0.10;;;;;;;17.67;80.96;98231.19;5059384;28;20044;-71
2023/09/03 01:34:45;;;;;;;0.05;0.05;;;;;;;17.59;81.15;98224.19;5060031;28;20051;-71
2023/09/03 01:37:13;;;;;;;0.13;0.13;;;;;;;17.38;82.00;98221.91;5059677;28;20137;-70
2023/09/03 01:39:41;;;;;;;0.13;0.13;;;;;;;17.41;82.10;98226.88;5058837;28;20036;-70
2023/09/03 01:42:08;;;;;;;0.28;0.28;;;;;;;17.47;81.83;98222.44;5060213;28;20098;-70
2023/09/03 01:44:36;;;;;;;0.00;0.00;;;;;;;17.50;81.53;98220.16;5058952;28;20049;-70
2023/09/03 01:47:13;;;;;;;0.20;0.20;;;;;;;17.48;81.91;98221.41;5058343;28;20056;-70
2023/09/03 01:49:47;;;;;;;0.03;0.03;;;;;;;17.55;82.43;98241.06;5058602;28;20041;-70
2023/09/03 01:52:22;;;;;;;0.03;0.03;;;;;;;17.66;81.89;98239.53;5060675;28;20068;-70
2023/09/03 01:54:51;;;;;;;0.10;0.10;;;;;;;17.59;82.00;98240.41;5059150;28;20059;-70
2023/09/03 01:57:20;;;;;;;0.28;0.28;;;;;;;17.57;81.87;98231.69;5059032;28;20127;-70
2023/09/03 01:59:50;;;;;;;0.10;0.10;;;;;;;17.42;82.89;98246.59;5058917;28;20033;-69
2023/09/03 02:02:21;;;;;;;0.13;0.13;;;;;;;17.35;83.57;98251.22;5058844;28;20444;-69
2023/09/03 02:04:49;;;;;;;0.20;0.20;;;;;;;17.17;84.02;98252.00;5059465;28;20139;-69
2023/09/03 02:07:16;;;;;;;0.20;0.20;;;;;;;17.27;83.13;98256.91;5060253;28;20062;-68
2023/09/03 02:09:44;;;;;;;0.10;0.10;;;;;;;17.42;82.75;98244.72;5059942;28;20511;-69
2023/09/03 02:12:12;;;;;;;0.10;0.10;;;;;;;17.22;82.45;98244.91;5058435;28;20081;-69
2023/09/03 02:14:39;;;;;;;0.08;0.08;;;;;;;17.19;82.07;98241.81;5057306;28;20133;-72
2023/09/03 02:17:09;;;;;;;0.13;0.13;;;;;;;17.17;82.02;98242.03;5058884;28;20044;-69
2023/09/03 02:19:38;;;;;;;0.03;0.03;;;;;;;17.15;82.26;98246.81;5059985;28;20549;-68
2023/09/03 02:22:05;;;;;;;0.10;0.10;;;;;;;17.16;81.96;98243.09;5058026;28;20515;-68
2023/09/03 02:24:33;;;;;;;0.10;0.10;;;;;;;17.11;82.46;98247.50;5059462;28;20127;-69
2023/09/03 02:27:01;;;;;;;0.15;0.15;;;;;;;17.10;82.41;98235.06;5059687;28;20500;-69
2023/09/03 02:29:28;;;;;;;0.13;0.13;;;;;;;17.11;82.43;98245.63;5057493;28;20055;-69
2023/09/03 02:31:56;;;;;;;0.13;0.13;;;;;;;17.06;82.66;98245.44;5059326;28;20119;-69
2023/09/03 02:34:24;;;;;;;0.13;0.13;;;;;;;17.09;82.85;98249.59;5056923;28;20045;-69
2023/09/03 02:36:53;;;;;;;0.03;0.03;;;;;;;17.07;83.54;98247.09;5060613;28;20079;-69
2023/09/03 02:39:21;;;;;;;0.10;0.10;;;;;;;16.93;84.18;98252.81;5058089;28;20052;-69
2023/09/03 02:41:49;;;;;;;0.13;0.13;;;;;;;16.95;83.98;98250.72;5061754;28;20061;-69
2023/09/03 02:44:17;;;;;;;0.10;0.10;;;;;;;16.98;83.57;98253.00;5062668;28;20480;-68
2023/09/03 02:46:45;;;;;;;0.13;0.13;;;;;;;17.00;83.12;98256.31;5062611;28;20048;-69
2023/09/03 02:49:13;;;;;;;0.10;0.10;;;;;;;16.97;83.82;98252.16;5061505;28;20500;-70
2023/09/03 02:51:41;;;;;;;0.13;0.13;;;;;;;16.91;84.14;98258.44;5063149;28;20048;-69
2023/09/03 02:54:10;;;;;;;0.10;0.10;;;;;;;16.85;84.34;98256.59;5061350;28;20067;-70
2023/09/03 02:56:38;;;;;;;0.10;0.10;;;;;;;16.89;84.50;98255.13;5061995;28;20040;-71
2023/09/03 02:59:05;;;;;;;0.17;0.17;;;;;;;16.96;83.64;98250.50;5062138;28;20045;-69
2023/09/03 03:01:33;;;;;;;0.13;0.13;;;;;;;16.91;83.57;98247.66;5062646;28;20130;-69
2023/09/03 03:04:01;;;;;;;0.20;0.20;;;;;;;16.85;83.26;98240.44;5060986;28;20132;-69
2023/09/03 03:06:29;;;;;;;0.13;0.13;;;;;;;16.82;83.13;98246.25;5062905;28;20037;-70
2023/09/03 03:08:57;;;;;;;0.03;0.03;;;;;;;16.80;83.10;98234.88;5060677;28;20048;-69
2023/09/03 03:11:26;;;;;;;0.03;0.03;;;;;;;16.68;83.48;98240.13;5062774;28;20032;-69
2023/09/03 03:13:59;;;;;;;0.13;0.13;;;;;;;16.60;84.38;98243.06;5061627;28;20142;-69
2023/09/03 03:16:31;;;;;;;0.03;0.03;;;;;;;16.59;84.57;98243.28;5060894;28;20076;-68
2023/09/03 03:19:02;;;;;;;0.40;0.40;;;;;;;16.55;85.34;98236.66;5060893;28;20043;-70
2023/09/03 03:21:32;;;;;;;0.10;0.10;;;;;;;16.57;85.10;98235.41;5062553;28;20396;-69
2023/09/03 03:24:04;;;;;;;0.10;0.10;;;;;;;16.52;85.44;98236.03;5061124;28;20403;-69
2023/09/03 03:26:37;;;;;;;;;;;;;;;16.48;85.71;98242.94;5061422;28;20052;-69
2023/09/03 03:29:09;;;;;;;0.13;0.13;;;;;;;16.42;86.46;98230.28;5077119;28;20009;-70
2023/09/03 03:31:43;;;;;;;0.13;0.13;;;;;;;16.40;86.48;98229.69;5061469;28;20148;-68
2023/09/03 03:34:12;;;;;;;0.10;0.10;;;;;;;16.38;86.81;98229.09;5061493;28;20068;-69
2023/09/03 03:36:42;;;;;;;0.13;0.13;;;;;;;16.30;86.98;98234.72;5061659;28;20042;-70
2023/09/03 03:39:10;;;;;;;0.20;0.20;;;;;;;16.31;86.80;98239.06;5062431;28;20123;-68
2023/09/03 03:41:39;;;;;;;0.10;0.10;;;;;;;16.27;86.73;98245.94;5061444;28;20036;-69
2023/09/03 03:44:12;;;;;;;0.20;0.20;;;;;;;16.26;86.48;98251.53;5059857;28;20045;-70
2023/09/03 03:46:40;;;;;;;0.15;0.15;;;;;;;16.29;85.72;98264.59;5062462;28;20037;-69
2023/09/03 03:49:09;;;;;;;0.13;0.13;;;;;;;16.29;85.60;98272.66;5060851;28;20048;-69
2023/09/03 03:51:38;;;;;;;0.13;0.13;;;;;;;16.34;85.51;98273.66;5060333;28;20075;-69
2023/09/03 03:54:06;;;;;;;0.13;0.13;;;;;;;16.25;85.84;98269.56;5062772;28;20079;-69
2023/09/03 03:56:35;;;;;;;0.20;0.20;;;;;;;16.34;85.70;98276.38;5060791;28;20049;-69
2023/09/03 03:59:05;;;;;;;0.13;0.13;;;;;;;16.43;85.48;98271.53;5060347;28;20052;-70
2023/09/03 04:01:33;;;;;;;0.13;0.13;;;;;;;16.45;85.18;98270.28;5061532;28;20040;-70
2023/09/03 04:04:01;;;;;;;0.10;0.10;;;;;;;16.52;84.79;98265.69;5060238;28;20543;-71
2023/09/03 04:06:31;;;;;;;0.28;0.28;;;;;;;16.53;84.85;98251.16;5061328;28;20037;-70
2023/09/03 04:08:59;;;;;;;0.13;0.13;;;;;;;16.47;85.13;98246.66;5060257;28;20127;-69
2023/09/03 04:11:27;;;;;;;0.13;0.13;;;;;;;16.38;85.40;98241.75;5060640;28;20032;-69
2023/09/03 04:13:54;;;;;;;0.13;0.13;;;;;;;16.32;85.79;98248.81;5060363;28;20049;-69
2023/09/03 04:16:23;;;;;;;0.00;0.00;;;;;;;16.25;86.23;98248.00;5060792;28;20140;-69
2023/09/03 04:18:52;;;;;;;0.20;0.20;;;;;;;16.26;86.22;98241.59;5060320;28;20052;-69
2023/09/03 04:21:20;;;;;;;0.20;0.20;;;;;;;16.27;86.08;98253.19;5060742;28;20098;-69
2023/09/03 04:23:48;;;;;;;0.20;0.20;;;;;;;16.17;86.15;98248.25;5059826;28;20053;-69
2023/09/03 04:26:16;;;;;;;0.13;0.13;;;;;;;16.12;86.42;98243.50;5060339;28;20407;-69
2023/09/03 04:28:48;;;;;;;0.13;0.13;;;;;;;16.18;85.98;98255.31;5059111;28;20044;-69
2023/09/03 04:31:16;;;;;;;0.15;0.15;;;;;;;16.15;86.16;98264.63;5060644;28;20090;-70
2023/09/03 04:33:46;;;;;;;0.00;0.00;;;;;;;16.19;86.06;98258.84;5059801;28;20045;-69
2023/09/03 04:36:14;;;;;;;0.20;0.20;;;;;;;16.07;86.24;98264.88;5059789;28;20053;-70
2023/09/03 04:38:42;;;;;;;0.10;0.10;;;;;;;16.16;85.84;98265.47;5060270;28;20048;-69
2023/09/03 04:41:12;;;;;;;0.13;0.13;;;;;;;16.20;85.50;98269.38;5065952;28;20032;-69
2023/09/03 04:43:48;;;;;;;0.13;0.13;;;;;;;16.25;84.99;98263.34;5059307;28;20126;-70
2023/09/03 04:46:20;;;;;;;0.20;0.20;;;;;;;16.28;85.31;98268.31;5057026;28;20152;-69
2023/09/03 04:48:49;;;;;;;0.13;0.13;;;;;;;16.29;84.73;98272.66;5058671;28;20052;-69
2023/09/03 04:51:17;;;;;;;0.15;0.15;;;;;;;16.25;84.77;98282.22;5060854;28;20037;-69
2023/09/03 04:53:45;;;;;;;0.10;0.10;;;;;;;16.19;85.22;98286.59;5059966;28;20049;-70
2023/09/03 04:56:13;;;;;;;0.15;0.15;;;;;;;16.17;85.16;98288.66;5061041;28;20039;-70
2023/09/03 04:58:44;;;;;;;0.03;0.03;;;;;;;16.09;85.60;98289.72;5059881;28;20040;-69
2023/09/03 05:01:15;;;;;;;0.03;0.03;;;;;;;16.22;84.82;98296.91;5060780;28;20069;-70
2023/09/03 05:03:46;;;;;;;0.13;0.13;;;;;;;16.20;84.93;98303.56;5058737;28;20048;-68
2023/09/03 05:06:17;;;;;;;0.08;0.08;;;;;;;16.17;85.04;98312.91;5062451;28;20033;-69
2023/09/03 05:08:48;;;;;;;0.13;0.13;;;;;;;16.01;85.57;98324.13;5061338;28;20060;-70
2023/09/03 05:11:17;;;;;;;0.10;0.10;;;;;;;16.14;85.09;98326.78;5060286;28;20041;-69
2023/09/03 05:13:46;;;;;;;0.17;0.17;;;;;;;15.98;85.42;98324.56;5059944;28;20431;-71
2023/09/03 05:16:16;;;;;;;0.13;0.13;;;;;;;16.06;85.53;98322.47;5059695;28;20055;-68
2023/09/03 05:18:44;;;;;;;0.17;0.17;;;;;;;16.22;85.25;98323.03;5062595;28;20051;-69
2023/09/03 05:21:13;;;;;;;0.03;0.03;;;;;;;16.21;85.15;98322.22;5059535;28;20041;-69
2023/09/03 05:23:42;;;;;;;0.22;0.22;;;;;;;16.23;85.26;98324.69;5059673;28;20056;-68
2023/09/03 05:26:11;;;;;;;0.10;0.10;;;;;;;16.32;84.99;98326.09;5060850;28;20045;-69
2023/09/03 05:28:41;;;;;;;0.20;0.20;;;;;;;16.32;84.57;98332.31;5059695;28;20052;-68
2023/09/03 05:31:11;;;;;;;0.10;0.10;;;;;;;16.30;84.84;98341.69;5061467;28;20091;-69
2023/09/03 05:33:40;;;;;;;0.15;0.15;;;;;;;16.37;84.65;98342.47;5064596;28;20060;-69
2023/09/03 05:36:09;;;;;;;0.13;0.13;;;;;;;16.33;84.74;98352.00;5061107;28;20041;-68
2023/09/03 05:38:39;;;;;;;0.10;0.10;;;;;;;16.29;84.82;98346.25;5059454;28;20045;-69
2023/09/03 05:41:08;;;;;;;0.13;0.13;;;;;;;16.45;84.84;98344.91;5058790;28;20047;-70
2023/09/03 05:43:36;;;;;;;0.15;0.15;;;;;;;16.55;84.45;98337.22;5060130;28;20045;-69
2023/09/03 05:46:04;;;;;;;0.05;0.05;;;;;;;16.64;84.21;98343.22;5059494;28;20055;-69
2023/09/03 05:48:33;;;;;;;0.20;0.20;;;;;;;16.66;84.37;98343.81;5059415;28;20037;-69
2023/09/03 05:51:04;;;;;;;0.10;0.10;;;;;;;16.61;83.73;98349.81;5059387;28;20091;-69
2023/09/03 05:53:35;;;;;;;0.00;0.00;;;;;;;16.56;84.01;98346.94;5059392;28;20622;-68
2023/09/03 05:56:07;;;;;;;0.10;0.10;;;;;;;16.52;83.94;98351.09;5082354;28;20049;-70
2023/09/03 05:58:36;;;;;;;0.05;0.05;;;;;;;16.50;84.06;98356.72;5057373;28;20047;-69
2023/09/03 06:01:04;;;;;;;0.10;0.10;;;;;;;16.55;83.98;98356.06;5060014;28;20712;-69
2023/09/03 06:03:32;;;;;;;0.13;0.13;;;;;;;16.58;83.86;98362.91;5060249;28;20037;-69
2023/09/03 06:06:02;;;;;;;0.10;0.10;;;;;;;16.67;84.14;98375.13;5059857;28;20045;-71
2023/09/03 06:08:31;;;;;;;0.20;0.20;;;;;;;16.69;83.52;98376.59;5058681;28;20444;-69
2023/09/03 06:11:00;;;;;;;0.22;0.22;;;;;;;16.66;83.52;98379.69;5060332;28;20049;-69
2023/09/03 06:13:29;;;;;;;0.05;0.05;;;;;;;16.70;83.94;98374.72;5059945;28;20037;-69
2023/09/03 06:15:57;;;;;;;0.10;0.10;;;;;;;16.76;83.44;98381.94;5061737;28;20128;-68
2023/09/03 06:18:25;;;;;;;0.10;0.10;;;;;;;16.72;83.80;98378.84;5063353;28;20128;-69
2023/09/03 06:20:54;;;;;;;0.10;0.10;;;;;;;16.92;82.71;98383.31;5065844;28;20044;-69
2023/09/03 06:23:22;;;;;;;0.10;0.10;;;;;;;16.86;83.08;98391.22;5063678;28;20139;-70
2023/09/03 06:25:51;;;;;;;0.10;0.10;;;;;;;16.89;83.24;98395.38;5063426;28;20055;-69
2023/09/03 06:28:19;;;;;;;0.22;0.22;;;;;;;16.94;82.88;98408.19;5064174;28;20080;-69
2023/09/03 06:30:48;;;;;;;0.20;0.20;;;;;;;17.01;82.82;98414.41;5062874;28;20076;-69
2023/09/03 06:33:16;;;;;;;0.05;0.05;;;;;;;17.06;82.71;98390.28;5063575;28;20049;-70
2023/09/03 06:35:44;;;;;;;0.13;0.13;;;;;;;17.15;82.14;98388.97;5064516;28;20048;-69
2023/09/03 06:38:12;;;;;;;0.13;0.13;;;;;;;17.18;81.81;98393.97;5063389;28;20052;-68
2023/09/03 06:40:39;;;;;;;0.13;0.13;;;;;;;17.13;82.09;98394.59;5063107;28;20070;-68
2023/09/03 06:43:07;;;;;;;0.03;0.03;;;;;;;17.16;82.14;98391.47;5061752;28;20391;-69
2023/09/03 06:45:35;;;;;;;0.13;0.13;;;;;;;17.24;82.37;98409.25;5064064;28;20045;-69
2023/09/03 06:48:04;;;;;;;0.13;0.13;;;;;;;17.31;82.08;98417.34;5061506;28;20174;-70
2023/09/03 06:50:32;;;;;;;0.20;0.20;;;;;;;17.34;81.46;98423.09;5063130;28;20036;-69
2023/09/03 06:53:00;;;;;;;0.32;0.32;;;;;;;17.34;80.33;98433.91;5062407;28;20037;-69
2023/09/03 06:55:27;;;;;;;0.20;0.20;;;;;;;17.30;80.34;98437.28;5062135;28;20040;-69
2023/09/03 06:57:55;;;;;;;0.10;0.10;;;;;;;17.33;80.42;98450.34;5063192;28;20049;-69
2023/09/03 07:00:23;;;;;;;0.15;0.15;;;;;;;17.37;80.42;98454.25;5063063;28;20044;-69
2023/09/03 07:02:50;;;;;;;0.03;0.03;;;;;;;17.35;80.58;98461.72;5063544;28;20043;-68
2023/09/03 07:05:19;;;;;;;0.13;0.13;;;;;;;17.40;80.80;98456.50;5064435;28;20049;-68
2023/09/03 07:07:47;;;;;;;0.03;0.03;;;;;;;17.44;80.72;98477.44;5066008;28;20527;-69
2023/09/03 07:10:15;;;;;;;0.00;0.00;;;;;;;17.47;80.33;98466.22;5071570;28;20454;-68
2023/09/03 07:12:42;;;;;;;0.15;0.15;;;;;;;17.54;80.06;98463.50;5066796;28;20411;-68
2023/09/03 07:15:10;;;;;;;0.00;0.00;;;;;;;17.59;79.82;98460.97;5065627;28;20504;-69
2023/09/03 07:17:38;;;;;;;0.17;0.17;;;;;;;17.67;80.33;98468.00;5065781;28;20119;-69
2023/09/03 07:20:07;;;;;;;0.13;0.13;;;;;;;17.75;79.87;98471.28;5066659;28;20476;-69
2023/09/03 07:22:36;;;;;;;0.13;0.13;;;;;;;17.74;79.51;98475.03;5070756;28;20047;-71
2023/09/03 07:25:04;;;;;;;0.10;0.10;;;;;;;17.78;80.00;98478.09;5066907;28;20495;-69
2023/09/03 07:27:33;;;;;;;0.10;0.10;;;;;;;17.85;78.98;98477.03;5070927;28;20041;-69
2023/09/03 07:30:02;;;;;;;0.03;0.03;;;;;;;17.91;79.35;98492.34;5072838;28;20045;-69
2023/09/03 07:32:30;;;;;;;0.10;0.10;;;;;;;17.88;78.82;98497.34;5071521;28;20543;-69
2023/09/03 07:34:58;;;;;;;0.13;0.13;;;;;;;17.90;79.19;98506.88;5068369;28;20115;-69
2023/09/03 07:37:25;;;;;;;0.13;0.13;;;;;;;17.90;79.43;98514.16;5062753;28;20041;-69
2023/09/03 07:39:54;;;;;;;0.10;0.10;;;;;;;17.86;79.85;98515.63;5061088;28;20054;-70
2023/09/03 07:42:22;;;;;;;0.10;0.10;;;;;;;17.88;80.07;98513.56;5063064;28;20045;-70
2023/09/03 07:44:50;;;;;;;0.20;0.20;;;;;;;17.78;79.93;98497.81;5062305;28;20041;-70
2023/09/03 07:47:20;;;;;;;0.10;0.10;;;;;;;17.81;80.12;98504.69;5061581;28;20048;-70
2023/09/03 07:49:48;;;;;;;0.03;0.03;;;;;;;17.85;79.96;98497.81;5061154;28;20033;-70
2023/09/03 07:52:17;;;;;;;0.10;0.10;;;;;;;17.77;79.05;98506.16;5061658;28;20045;-69
2023/09/03 07:54:45;;;;;;;0.13;0.13;;;;;;;17.68;79.15;98510.97;5061678;28;20098;-69
2023/09/03 07:57:14;;;;;;;0.17;0.17;;;;;;;17.73;79.00;98515.75;5063154;28;20485;-69
2023/09/03 07:59:41;;;;;;;0.13;0.13;;;;;;;17.74;78.75;98512.00;5062896;28;20044;-69
2023/09/03 08:02:09;;;;;;;0.20;0.20;;;;;;;17.78;78.81;98530.22;5061248;28;20045;-69
2023/09/03 08:04:37;;;;;;;0.10;0.10;;;;;;;17.79;78.34;98520.25;5062322;28;20109;-69
2023/09/03 08:07:04;;;;;;;0.10;0.10;;;;;;;17.81;78.64;98518.19;5062607;28;20514;-69
2023/09/03 08:09:33;;;;;;;0.00;0.00;;;;;;;17.80;78.54;98528.16;5061073;28;20049;-69
2023/09/03 08:12:00;;;;;;;0.15;0.15;;;;;;;17.82;78.88;98523.38;5061502;28;20045;-70
2023/09/03 08:14:29;;;;;;;0.10;0.10;;;;;;;17.90;78.15;98533.91;5062175;28;20032;-68
2023/09/03 08:16:57;;;;;;;0.15;0.15;;;;;;;17.96;78.32;98535.72;5062065;28;20073;-69
2023/09/03 08:19:25;;;;;;;0.20;0.20;;;;;;;18.02;78.08;98538.59;5060412;28;20048;-69
2023/09/03 08:21:53;;;;;;;0.10;0.10;;;;;;;18.05;77.83;98538.19;5062293;28;20063;-69
2023/09/03 08:24:20;;;;;;;0.10;0.10;;;;;;;18.05;77.55;98536.31;5061677;28;20044;-69
2023/09/03 08:26:48;;;;;;;0.13;0.13;;;;;;;18.08;77.44;98540.41;5061838;28;20063;-69
2023/09/03 08:29:16;;;;;;;0.03;0.03;;;;;;;18.09;77.13;98552.88;5061291;28;20048;-69
2023/09/03 08:31:45;;;;;;;0.17;0.17;;;;;;;18.09;77.50;98548.31;5060802;28;20068;-69
2023/09/03 08:34:14;;;;;;;0.10;0.10;;;;;;;18.06;77.17;98543.38;5062992;28;20049;-69
2023/09/03 08:36:42;;;;;;;0.10;0.10;;;;;;;18.06;77.50;98534.44;5062775;28;20404;-69
2023/09/03 08:39:10;;;;;;;0.17;0.17;;;;;;;18.14;77.43;98534.97;5062869;28;20045;-69
2023/09/03 08:41:39;;;;;;;0.22;0.22;;;;;;;18.23;77.31;98543.66;5061605;28;20058;-69
2023/09/03 08:44:11;;;;;;;0.20;0.20;;;;;;;18.27;76.66;98539.47;5059268;28;20470;-69
2023/09/03 08:46:40;;;;;;;0.03;0.03;;;;;;;18.25;75.62;98534.28;5060875;28;20045;-69
2023/09/03 08:49:10;;;;;;;0.25;0.25;;;;;;;18.25;76.15;98539.69;5060685;28;20044;-69
2023/09/03 08:51:37;;;;;;;0.03;0.03;;;;;;;18.26;75.66;98538.63;5061603;28;20124;-69
2023/09/03 08:54:05;;;;;;;0.10;0.10;;;;;;;18.32;75.23;98537.75;5061155;28;20052;-69
2023/09/03 08:56:35;;;;;;;0.13;0.13;;;;;;;18.33;75.26;98547.50;5060261;28;20083;-69
2023/09/03 08:59:02;;;;;;;0.10;0.10;;;;;;;18.33;74.89;98544.81;5060856;28;20040;-69
2023/09/03 09:01:30;;;;;;;0.20;0.20;;;;;;;18.39;74.62;98553.06;5060865;28;20043;-69
2023/09/03 09:04:01;;;;;;;0.13;0.13;;;;;;;18.43;74.25;98559.69;5060132;28;20048;-69
2023/09/03 09:06:30;;;;;;;0.10;0.10;;;;;;;18.41;74.37;98561.78;5061173;28;20412;-69
2023/09/03 09:08:59;;;;;;;0.13;0.13;;;;;;;18.41;74.09;98572.59;5060053;28;20053;-69
2023/09/03 09:11:32;;;;;;;0.20;0.20;;;;;;;18.44;74.01;98578.41;5060442;28;20040;-69
2023/09/03 09:14:01;;;;;;;0.10;0.10;;;;;;;18.50;73.10;98582.09;5061435;28;20040;-69
2023/09/03 09:16:28;;;;;;;0.17;0.17;;;;;;;18.53;73.21;98582.50;5060664;28;20045;-71
2023/09/03 09:18:58;;;;;;;0.25;0.25;;;;;;;18.56;72.49;98575.81;5060289;28;20044;-71
2023/09/03 09:21:30;;;;;;;0.03;0.03;;;;;;;18.47;72.76;98580.69;5062026;28;20680;-69
2023/09/03 09:24:02;;;;;;;0.10;0.10;;;;;;;18.62;72.48;98586.59;5060819;28;20040;-70
2023/09/03 09:26:32;;;;;;;0.10;0.10;;;;;;;18.72;72.24;98582.56;5061130;28;20411;-69
2023/09/03 09:29:00;;;;;;;0.10;0.10;;;;;;;18.72;71.69;98575.28;5059540;28;20044;-70
2023/09/03 09:31:30;;;;;;;0.10;0.10;;;;;;;18.76;72.04;98570.25;5061037;28;20045;-70
2023/09/03 09:33:59;;;;;;;0.13;0.13;;;;;;;18.85;71.91;98571.63;5060969;28;20037;-69
2023/09/03 09:36:27;;;;;;;0.10;0.10;;;;;;;18.96;71.77;98568.19;5060654;28;20111;-69
2023/09/03 09:39:05;;;;;;;0.08;0.08;;;;;;;18.96;71.34;98554.66;5059752;28;20056;-69
2023/09/03 09:41:37;;;;;;;0.13;0.13;;;;;;;19.17;71.47;98558.78;5065230;28;20082;-70
2023/09/03 09:44:11;;;;;;;0.13;0.13;;;;;;;19.24;69.92;98565.78;5061512;28;20055;-70
2023/09/03 09:46:39;;;;;;;0.03;0.03;;;;;;;19.12;70.01;98564.03;5061430;28;20072;-69
2023/09/03 09:49:08;;;;;;;0.15;0.15;;;;;;;19.12;70.12;98561.31;5062669;28;20132;-69
2023/09/03 09:51:35;;;;;;;0.22;0.22;;;;;;;19.25;70.38;98570.13;5065030;28;20098;-69
2023/09/03 09:54:05;;;;;;;0.10;0.10;;;;;;;19.30;70.05;98562.19;5064384;28;20162;-69
2023/09/03 09:56:34;;;;;;;0.10;0.10;;;;;;;19.29;69.97;98567.81;5066067;28;20041;-69
2023/09/03 09:59:03;;;;;;;0.10;0.10;;;;;;;19.38;70.02;98564.56;5064138;28;20071;-69
2023/09/03 10:01:42;;;;;;;0.03;0.03;;;;;;;19.45;69.41;98567.19;5065167;28;20044;-70
2023/09/03 10:04:10;;;;;;;0.13;0.13;;;;;;;19.59;68.56;98554.34;5066096;28;20492;-70
2023/09/03 10:06:38;;;;;;;0.13;0.13;;;;;;;19.73;67.98;98547.66;5068121;28;20045;-69
2023/09/03 10:09:08;;;;;;;0.10;0.10;;;;;;;19.92;67.70;98557.44;5071796;28;20063;-69
2023/09/03 10:11:36;;;;;;;0.10;0.10;;;;;;;20.02;66.53;98543.31;5069119;28;20046;-70
2023/09/03 10:14:04;;;;;;;0.03;0.03;;;;;;;19.89;66.30;98535.38;5072234;28;20058;-70
2023/09/03 10:16:32;;;;;;;0.10;0.10;;;;;;;19.81;66.67;98533.00;5064246;28;20756;-69
2023/09/03 10:19:03;;;;;;;0.08;0.08;;;;;;;19.77;66.84;98532.63;5061767;28;20045;-69
2023/09/03 10:21:31;;;;;;;0.10;0.10;;;;;;;19.84;66.89;98521.66;5062814;28;20083;-69
2023/09/03 10:24:21;;;;;;;0.20;0.20;;;;;;;19.93;66.28;98531.97;5062434;28;20472;-69
2023/09/03 10:26:53;;;;;;;0.03;0.03;;;;;;;19.93;64.88;98544.69;5063370;28;20117;-69
2023/09/03 10:29:23;;;;;;;0.00;0.00;;;;;;;20.09;64.36;98541.31;5062715;28;20411;-69
2023/09/03 10:31:52;;;;;;;0.03;0.00;;;;;;;20.18;64.21;98542.63;5064214;28;20048;-69
2023/09/03 10:34:20;;;;;;;0.10;0.10;;;;;;;20.36;63.09;98558.00;5060745;28;20064;-69
2023/09/03 10:37:04;;;;;;;0.13;0.13;;;;;;;20.45;61.89;98565.56;5061871;28;20040;-70
2023/09/03 10:39:33;;;;;;;0.13;0.13;;;;;;;20.36;62.08;98560.72;5064402;28;20097;-69
2023/09/03 10:42:26;;;;;;;0.05;0.05;;;;;;;19.94;63.63;98560.72;5063254;28;20053;-69
2023/09/03 10:44:55;;;;;;;0.15;0.15;;;;;;;20.01;63.46;98566.88;5063704;28;20041;-70
2023/09/03 10:47:23;;;;;;;0.13;0.13;;;;;;;20.22;62.93;98560.09;5063326;28;20044;-70
2023/09/03 10:49:52;;;;;;;0.10;0.10;;;;;;;20.33;62.57;98566.59;5063575;28;20048;-69
2023/09/03 10:52:44;;;;;;;0.10;0.10;;;;;;;20.29;62.43;98566.22;5063822;28;20079;-69
2023/09/03 10:55:15;;;;;;;0.10;0.10;;;;;;;20.40;62.42;98560.03;5048462;28;20067;-69
2023/09/03 10:57:43;;;;;;;0.00;0.00;;;;;;;20.52;61.90;98560.06;5063272;28;20033;-69
2023/09/03 11:00:13;;;;;;;0.13;0.13;;;;;;;20.59;62.73;98551.78;5061491;28;20051;-69
2023/09/03 11:02:41;;;;;;;0.13;0.13;;;;;;;20.66;62.52;98552.53;5063309;28;20496;-70
2023/09/03 11:05:21;;;;;;;0.08;0.08;;;;;;;20.69;61.95;98552.03;5063683;28;20051;-70
2023/09/03 11:07:50;;;;;;;0.00;0.00;;;;;;;20.72;62.34;98555.09;5062946;28;20424;-69
2023/09/03 11:10:41;;;;;;;0.03;0.03;;;;;;;20.79;60.67;98549.53;5063122;28;20111;-69
2023/09/03 11:13:12;;;;;;;0.03;0.03;;;;;;;20.76;60.44;98550.88;5063280;28;20123;-69
2023/09/03 11:16:00;;;;;;;0.03;0.03;;;;;;;20.81;60.04;98542.84;5063618;28;20110;-70
2023/09/03 11:18:28;;;;;;;0.00;0.00;;;;;;;21.00;59.35;98550.84;5062871;28;20036;-70
2023/09/03 11:20:56;;;;;;;0.28;0.28;;;;;;;21.12;59.55;98546.22;5063303;28;20124;-70
2023/09/03 11:23:27;;;;;;;0.03;0.03;;;;;;;21.13;60.41;98547.88;5063104;28;20044;-70
2023/09/03 11:26:02;;;;;;;0.10;0.10;;;;;;;21.07;59.59;98546.13;5062446;28;20040;-70
2023/09/03 11:28:35;;;;;;;0.20;0.20;;;;;;;20.86;60.27;98551.09;5062510;28;20514;-70
2023/09/03 11:31:03;;;;;;;0.03;0.03;;;;;;;20.75;60.88;98545.69;5063185;28;20098;-70
2023/09/03 11:33:31;;;;;;;0.20;0.20;;;;;;;20.95;60.70;98548.84;5062905;28;20041;-70
2023/09/03 11:36:00;;;;;;;0.10;0.10;;;;;;;21.04;59.46;98546.59;5063218;28;20074;-70
2023/09/03 11:38:29;;;;;;;0.10;0.10;;;;;;;20.99;59.72;98544.56;5062296;28;20500;-70
2023/09/03 11:40:58;;;;;;;0.10;0.10;;;;;;;21.05;58.67;98543.63;5063203;28;20056;-70
2023/09/03 11:43:29;;;;;;;0.10;0.10;;;;;;;20.86;59.01;98558.41;5063601;28;20045;-70
2023/09/03 11:45:57;;;;;;;0.08;0.08;;;;;;;21.23;58.79;98543.50;5062236;28;20041;-70